Time;durP1;ratioP1;P1;durP2;ratioP2;P2;SDS_P1;SDS_P2;PMS_P1;PMS_P2;Temp;Humidity;BMP_temperature;BMP_pressure;BME280_temperature;BME280_humidity;BME280_pressure;Samples;Min_cycle;Max_cycle;Signal;HPM_P1;HPM_P2
2021/12/09 00:01:07;;;;;;;66.75;30.15;;;;;;;-3.06;82.23;100232.43;1694470;84;21100;-77
2021/12/09 00:03:39;;;;;;;66.85;30.62;;;;;;;-3.06;82.26;100229.91;1675082;84;20930;-77
2021/12/09 00:06:08;;;;;;;65.47;29.77;;;;;;;-3.06;82.28;100229.50;1641047;86;20974;-77
2021/12/09 00:08:37;;;;;;;63.55;28.50;;;;;;;-3.07;82.22;100229.05;1632490;87;21076;-77
2021/12/09 00:11:07;;;;;;;68.95;30.80;;;;;;;-3.06;82.29;100228.23;1692196;84;21063;-77
2021/12/09 00:13:35;;;;;;;73.20;31.80;;;;;;;-3.07;82.21;100224.39;1666458;84;20970;-77
2021/12/09 00:16:01;;;;;;;64.12;29.52;;;;;;;-3.18;82.29;100200.45;1674413;84;209765;-77
2021/12/09 00:18:28;;;;;;;76.60;31.20;;;;;;;-3.08;82.24;100218.88;1669113;84;21021;-77
2021/12/09 00:20:56;;;;;;;64.42;28.73;;;;;;;-3.10;82.27;100215.03;1685037;84;21482;-77
2021/12/09 00:23:23;;;;;;;61.42;28.23;;;;;;;-3.09;82.29;100212.09;1696513;84;21077;-77
2021/12/09 00:25:49;;;;;;;67.90;29.52;;;;;;;-3.09;82.30;100215.89;1678947;84;21067;-77
2021/12/09 00:28:16;;;;;;;59.33;27.85;;;;;;;-3.11;82.28;100213.72;1661531;85;21105;-77
2021/12/09 00:30:42;;;;;;;61.83;27.48;;;;;;;-3.22;82.30;100199.91;1660370;85;21152;-77
2021/12/09 00:33:10;;;;;;;66.22;30.37;;;;;;;-3.11;82.36;100222.16;1643835;84;21085;-77
2021/12/09 00:35:47;;;;;;;60.80;26.77;;;;;;;-3.10;82.32;100215.03;1650485;85;20910;-77
2021/12/09 00:38:36;;;;;;;66.75;28.30;;;;;;;-3.10;82.34;100205.33;1648835;85;20958;-78
2021/12/09 00:41:09;;;;;;;67.42;29.63;;;;;;;-3.07;82.46;100207.95;1713424;82;21612;-78
2021/12/09 00:43:37;;;;;;;65.85;29.15;;;;;;;-3.05;82.48;100199.61;1714094;82;21031;-78
2021/12/09 00:46:04;;;;;;;65.52;28.55;;;;;;;-3.03;82.43;100195.86;1704332;82;21543;-78
2021/12/09 00:48:31;;;;;;;74.45;30.48;;;;;;;-3.07;82.47;100188.58;1709452;82;21036;-77
2021/12/09 00:50:59;;;;;;;69.25;29.72;;;;;;;-3.03;82.38;100203.04;1710789;82;21075;-77
2021/12/09 00:53:26;;;;;;;72.82;30.60;;;;;;;-3.03;82.42;100212.30;1740706;82;21017;-77
2021/12/09 00:55:53;;;;;;;69.20;29.70;;;;;;;-3.05;82.46;100218.57;1716734;82;20956;-78
2021/12/09 00:58:21;;;;;;;67.10;28.70;;;;;;;-3.03;82.45;100212.30;1700378;82;21031;-78
2021/12/09 01:00:48;;;;;;;64.00;28.98;;;;;;;-3.06;82.45;100195.36;1696842;81;20976;-77
2021/12/09 01:03:17;;;;;;;68.40;30.30;;;;;;;-3.01;82.48;100208.15;1713165;82;21051;-78
2021/12/09 01:05:49;;;;;;;70.17;30.40;;;;;;;-3.01;82.44;100211.94;1721994;82;21453;-78
2021/12/09 01:08:12;;;;;;;70.15;29.55;;;;;;;-3.01;82.48;100209.41;1696372;82;21095;-78
2021/12/09 01:10:40;;;;;;;74.12;30.65;;;;;;;-3.08;82.36;100200.77;1722886;82;21024;-78
2021/12/09 01:13:06;;;;;;;69.92;30.62;;;;;;;-2.99;82.50;100210.32;1699544;82;20984;-78
2021/12/09 01:15:33;;;;;;;70.40;29.27;;;;;;;-2.96;82.50;100208.30;1717590;82;21055;-78
2021/12/09 01:18:00;;;;;;;66.28;29.30;;;;;;;-3.04;82.51;100195.00;1720907;82;21044;-78
2021/12/09 01:20:27;;;;;;;75.35;31.52;;;;;;;-2.95;82.54;100207.48;1710641;82;20937;-78
2021/12/09 01:22:57;;;;;;;63.73;28.57;;;;;;;-2.93;82.57;100207.98;1719893;81;21410;-78
2021/12/09 01:25:26;;;;;;;64.12;28.00;;;;;;;-2.93;82.47;100200.80;1740672;81;21056;-78
2021/12/09 01:27:56;;;;;;;69.60;30.35;;;;;;;-3.05;82.46;100169.66;1724328;82;21557;-78
2021/12/09 01:30:24;;;;;;;65.47;28.80;;;;;;;-2.94;82.51;100191.50;1699031;84;20942;-78
2021/12/09 01:32:54;;;;;;;66.22;27.62;;;;;;;-2.93;82.58;100194.48;1716041;83;20969;-77
2021/12/09 01:35:26;;;;;;;61.37;27.25;;;;;;;-2.92;82.53;100202.12;1687765;83;21552;-77
2021/12/09 01:37:55;;;;;;;69.58;29.48;;;;;;;-2.93;82.48;100185.22;1717474;82;21093;-77
2021/12/09 01:40:23;;;;;;;67.12;29.67;;;;;;;-2.94;82.49;100180.97;1721958;82;20926;-77
2021/12/09 01:42:50;;;;;;;62.33;28.40;;;;;;;-2.95;82.53;100179.66;1706429;83;20969;-77
2021/12/09 01:45:17;;;;;;;67.40;30.15;;;;;;;-2.95;82.54;100174.60;1726243;83;20957;-77
2021/12/09 01:47:44;;;;;;;62.08;28.17;;;;;;;-2.94;82.55;100167.47;1709683;83;20961;-77
2021/12/09 01:50:11;;;;;;;71.10;29.75;;;;;;;-2.95;82.61;100168.28;1718240;83;20949;-77
2021/12/09 01:52:38;;;;;;;71.45;29.35;;;;;;;-2.96;82.53;100160.23;1725985;83;20914;-78
2021/12/09 01:55:07;;;;;;;72.90;29.63;;;;;;;-2.95;82.56;100159.42;1706496;83;20950;-78
2021/12/09 01:57:34;;;;;;;65.80;28.23;;;;;;;-2.95;82.55;100157.76;1715120;82;20958;-78
2021/12/09 02:00:01;;;;;;;74.07;30.27;;;;;;;-2.93;82.63;100154.01;1704751;82;20921;-78
2021/12/09 02:02:27;;;;;;;71.70;28.70;;;;;;;-2.94;82.59;100148.09;1693389;83;20973;-78
2021/12/09 02:04:54;;;;;;;76.60;30.92;;;;;;;-2.94;82.58;100147.23;1691536;83;20958;-78
2021/12/09 02:07:20;;;;;;;;;;;;;;;-2.93;82.63;100144.75;1670981;83;20973;-78
2021/12/09 02:09:46;;;;;;;84.43;32.17;;;;;;;-2.92;82.67;100142.67;1674293;83;22822;-78
2021/12/09 02:12:12;;;;;;;79.87;32.93;;;;;;;-2.92;82.60;100150.27;1704271;82;20962;-78
2021/12/09 02:14:43;;;;;;;79.15;33.05;;;;;;;-2.91;82.62;100149.86;1718368;82;25006;-78
2021/12/09 02:17:11;;;;;;;73.75;30.82;;;;;;;-2.92;82.60;100153.20;1700163;83;20938;-78
2021/12/09 02:19:41;;;;;;;79.27;32.00;;;;;;;-2.90;82.65;100151.17;1733222;81;20951;-77
2021/12/09 02:22:14;;;;;;;75.72;31.70;;;;;;;-2.89;82.65;100146.97;1743995;81;21005;-78
2021/12/09 02:24:41;;;;;;;75.95;31.45;;;;;;;-2.89;82.66;100149.50;1730526;82;21545;-78
2021/12/09 02:27:09;;;;;;;74.85;31.85;;;;;;;-2.88;82.63;100168.52;1704240;82;20996;-77
2021/12/09 02:29:37;;;;;;;63.38;28.57;;;;;;;-2.90;82.54;100156.63;1727005;82;20906;-78
2021/12/09 02:32:04;;;;;;;72.30;30.08;;;;;;;-2.94;82.54;100155.68;1664412;84;20974;-78
2021/12/09 02:34:31;;;;;;;79.70;30.27;;;;;;;-2.94;82.64;100154.41;1673816;84;20929;-78
2021/12/09 02:36:58;;;;;;;61.13;26.97;;;;;;;-2.94;82.59;100147.23;1679500;84;22334;-78
2021/12/09 02:39:24;;;;;;;;;;;;;;;-2.97;82.57;100146.73;1675649;84;20882;-77
2021/12/09 02:41:53;;;;;;;70.10;27.48;;;;;;;-3.00;82.58;100150.44;1593692;83;5001605;-77
2021/12/09 02:44:22;;;;;;;73.02;28.95;;;;;;;-3.01;82.59;100155.03;1705477;82;22148;-77
2021/12/09 02:46:52;;;;;;;70.70;27.82;;;;;;;-3.12;82.70;100133.65;1712920;81;20926;-78
2021/12/09 02:49:22;;;;;;;72.70;30.25;;;;;;;-3.00;82.68;100155.49;1706425;82;20941;-78
2021/12/09 02:51:51;;;;;;;75.90;29.57;;;;;;;-3.02;82.64;100161.77;1705044;82;20916;-77
2021/12/09 02:54:20;;;;;;;69.85;28.83;;;;;;;-3.01;82.69;100153.77;1699373;82;21959;-77
2021/12/09 02:56:51;;;;;;;70.52;28.15;;;;;;;-3.02;82.64;100152.05;1729313;82;21935;-77
2021/12/09 02:59:17;;;;;;;74.67;29.95;;;;;;;-3.02;82.71;100149.13;1696379;82;20920;-77
2021/12/09 03:02:01;;;;;;;71.50;30.30;;;;;;;-3.01;82.61;100155.89;1698486;82;21442;-77
2021/12/09 03:04:51;;;;;;;70.00;30.12;;;;;;;-3.01;82.73;100155.89;1705110;82;21262;-78
2021/12/09 03:07:34;;;;;;;81.80;33.78;;;;;;;-3.00;82.71;100159.28;1692040;82;20909;-78
2021/12/09 03:10:24;;;;;;;79.58;32.78;;;;;;;-2.98;82.74;100158.06;1691240;82;21399;-78
2021/12/09 03:12:57;;;;;;;77.00;32.03;;;;;;;-2.97;82.72;100158.11;1678019;84;20936;-78
2021/12/09 03:15:38;;;;;;;81.90;33.55;;;;;;;-3.04;82.70;100151.15;1658276;84;21804;-78
2021/12/09 03:18:04;;;;;;;88.72;33.18;;;;;;;-2.96;82.73;100156.45;1638701;86;20960;-78
2021/12/09 03:20:30;;;;;;;81.05;33.45;;;;;;;-2.95;82.71;100160.28;1695966;83;20956;-77
2021/12/09 03:22:57;;;;;;;79.30;33.95;;;;;;;-2.97;82.71;100156.85;1703998;82;21707;-77
2021/12/09 03:25:23;;;;;;;85.50;33.50;;;;;;;-3.00;82.66;100153.82;1720804;82;21856;-78
2021/12/09 03:27:50;;;;;;;78.17;32.38;;;;;;;-3.01;82.71;100145.78;1716939;82;21409;-77
2021/12/09 03:30:19;;;;;;;84.28;34.00;;;;;;;-3.01;82.72;100147.45;1716042;82;20912;-77
2021/12/09 03:32:46;;;;;;;81.85;32.65;;;;;;;-2.98;82.78;100149.22;1711534;82;21747;-77
2021/12/09 03:35:14;;;;;;;82.95;34.65;;;;;;;-2.97;82.73;100145.87;1716261;82;21453;-77
2021/12/09 03:37:42;;;;;;;78.62;33.25;;;;;;;-3.00;82.67;100144.97;1714438;82;22296;-77
2021/12/09 03:40:11;;;;;;;80.10;34.58;;;;;;;-2.99;82.73;100145.83;1692084;83;21845;-77
2021/12/09 03:42:38;;;;;;;80.80;32.75;;;;;;;-2.99;82.71;100143.30;1676942;83;21530;-77
2021/12/09 03:45:07;;;;;;;86.80;34.45;;;;;;;-2.99;82.76;100142.03;1737183;82;21634;-77
2021/12/09 03:47:34;;;;;;;72.03;31.10;;;;;;;-2.98;82.68;100146.69;1689236;82;21122;-77
2021/12/09 03:50:03;;;;;;;78.05;33.90;;;;;;;-2.98;82.75;100150.48;1708632;82;21635;-77
2021/12/09 03:52:29;;;;;;;78.83;31.73;;;;;;;-2.98;82.76;100160.59;1731065;82;22373;-76
2021/12/09 03:54:56;;;;;;;78.12;32.70;;;;;;;-2.97;82.76;100164.84;1682860;83;21136;-77
2021/12/09 03:57:23;;;;;;;75.97;30.90;;;;;;;-2.96;82.75;100172.88;1725721;82;22266;-77
2021/12/09 03:59:50;;;;;;;82.05;33.73;;;;;;;-2.98;82.74;100172.84;1680631;84;21486;-77
2021/12/09 04:02:20;;;;;;;80.42;31.42;;;;;;;-2.96;82.77;100170.36;1719301;82;20963;-77
2021/12/09 04:04:47;;;;;;;78.17;31.87;;;;;;;-2.98;82.75;100169.05;1711815;82;21484;-77
2021/12/09 04:07:14;;;;;;;87.17;32.42;;;;;;;-2.97;82.77;100165.70;1719632;82;22166;-78
2021/12/09 04:09:40;;;;;;;79.22;32.10;;;;;;;-2.96;82.81;100153.51;1733751;82;21048;-78
2021/12/09 04:12:09;;;;;;;82.40;32.90;;;;;;;-2.98;82.74;100149.22;1673588;84;26575;-78
2021/12/09 04:14:37;;;;;;;73.15;30.55;;;;;;;-3.00;82.74;100150.02;1677496;82;21076;-77
2021/12/09 04:17:04;;;;;;;76.65;32.55;;;;;;;-3.00;82.79;100151.70;1693026;83;21170;-78
2021/12/09 04:19:30;;;;;;;80.65;32.23;;;;;;;-3.00;82.65;100151.30;1719870;82;20888;-77
2021/12/09 04:21:56;;;;;;;;;;;;;;;-3.00;82.82;100141.58;1715760;82;22143;-78
2021/12/09 04:24:32;;;;;;;73.52;29.05;;;;;;;-2.97;82.91;100135.76;1724044;81;20563;-77
2021/12/09 04:26:59;;;;;;;78.83;32.05;;;;;;;-2.96;82.86;100130.75;1715620;82;26877;-77
2021/12/09 04:29:25;;;;;;;79.50;31.42;;;;;;;-2.95;82.85;100132.87;1712858;82;21474;-77
2021/12/09 04:31:52;;;;;;;81.10;32.85;;;;;;;-2.93;82.90;100137.16;1696367;84;25275;-78
2021/12/09 04:34:19;;;;;;;73.52;31.75;;;;;;;-2.93;82.85;100137.16;1682666;84;21033;-78
2021/12/09 04:36:45;;;;;;;74.77;30.77;;;;;;;-2.94;82.85;100126.59;1733569;81;22311;-78
2021/12/09 04:39:14;;;;;;;82.65;30.25;;;;;;;-2.93;82.87;100132.51;1739561;81;22191;-78
2021/12/09 04:41:40;;;;;;;66.42;29.72;;;;;;;-2.92;82.89;100131.70;1705624;82;21655;-77
2021/12/09 04:44:08;;;;;;;71.62;31.12;;;;;;;-2.92;82.83;100127.91;1725816;82;21002;-77
2021/12/09 04:46:35;;;;;;;65.83;29.30;;;;;;;-2.94;82.94;100124.06;1684195;84;20919;-77
2021/12/09 04:49:03;;;;;;;77.87;30.20;;;;;;;-2.93;82.85;100133.37;1698110;83;21364;-77
2021/12/09 04:51:29;;;;;;;76.00;31.00;;;;;;;-2.92;82.89;100130.44;1679474;84;21395;-77
2021/12/09 04:53:56;;;;;;;92.37;32.93;;;;;;;-2.89;82.95;100131.38;1752485;81;21345;-77
2021/12/09 04:56:23;;;;;;;67.70;30.70;;;;;;;-2.87;82.95;100137.34;1721770;81;20926;-77
2021/12/09 04:58:50;;;;;;;71.95;30.05;;;;;;;-2.85;82.87;100136.13;1711596;82;20966;-77
2021/12/09 05:01:17;;;;;;;;;;;;;;;-2.86;82.88;100136.53;1710255;82;21124;-77
2021/12/09 05:03:46;;;;;;;76.87;28.38;;;;;;;-2.84;82.95;100146.30;1741974;81;20223;-77
2021/12/09 05:06:12;;;;;;;71.80;28.92;;;;;;;-2.84;82.89;100149.23;1741617;81;21703;-74
2021/12/09 05:08:44;;;;;;;68.90;30.08;;;;;;;-2.84;82.90;100147.97;1728055;81;21055;-77
2021/12/09 05:11:12;;;;;;;66.12;28.83;;;;;;;-2.83;82.90;100156.01;1725957;81;21265;-77
2021/12/09 05:13:39;;;;;;;71.28;30.40;;;;;;;-2.83;82.86;100153.48;1728085;81;21116;-77
2021/12/09 05:16:09;;;;;;;63.98;28.52;;;;;;;-2.85;82.87;100150.05;1724779;81;20988;-77
2021/12/09 05:18:38;;;;;;;66.72;29.67;;;;;;;-2.84;82.91;100143.77;1728553;82;21028;-77
2021/12/09 05:21:12;;;;;;;69.22;29.92;;;;;;;-2.82;82.96;100137.48;1704171;82;21054;-74
2021/12/09 05:23:40;;;;;;;68.70;28.67;;;;;;;-2.79;82.96;100138.84;1684560;84;21021;-74
2021/12/09 05:26:07;;;;;;;66.00;28.73;;;;;;;-2.79;82.89;100145.17;1700249;83;21583;-74
2021/12/09 05:28:36;;;;;;;70.62;29.15;;;;;;;-2.79;82.90;100151.49;1705549;83;21104;-75
2021/12/09 05:33:50;;;;;;;66.15;29.18;;;;;;;-2.81;82.89;100141.33;1721790;82;21016;-74
2021/12/09 05:36:18;;;;;;;65.60;28.80;;;;;;;-2.81;82.87;100141.73;1714096;83;20944;-74
2021/12/09 05:38:44;;;;;;;70.60;30.70;;;;;;;-2.83;82.90;100144.63;1714067;83;20992;-74
2021/12/09 05:41:11;;;;;;;68.85;30.08;;;;;;;-2.84;82.88;100147.97;1711980;82;21040;-74
2021/12/09 05:43:39;;;;;;;65.25;29.12;;;;;;;-2.84;82.90;100155.55;1707747;83;21071;-75
2021/12/09 05:46:05;;;;;;;66.10;30.30;;;;;;;-2.83;82.96;100166.13;1706170;82;21082;-74
2021/12/09 05:48:33;;;;;;;67.55;28.20;;;;;;;-2.84;82.98;100163.14;1712980;83;21055;-76
2021/12/09 05:50:59;;;;;;;64.45;28.87;;;;;;;-2.86;82.94;100160.56;1682854;83;21060;-75
2021/12/09 05:53:26;;;;;;;63.98;27.80;;;;;;;-2.84;82.91;100175.80;1712741;83;21055;-74
2021/12/09 05:55:52;;;;;;;65.05;28.23;;;;;;;-2.84;82.97;100180.85;1711298;82;21055;-74
2021/12/09 05:58:22;;;;;;;65.05;28.45;;;;;;;-2.84;82.94;100194.36;1711724;82;21032;-75
2021/12/09 06:00:51;;;;;;;69.17;29.52;;;;;;;-2.83;82.95;100207.88;1715074;83;20885;-74
2021/12/09 06:03:19;;;;;;;71.60;30.70;;;;;;;-2.82;82.99;100212.12;1711466;82;20963;-74
2021/12/09 06:05:46;;;;;;;69.72;29.12;;;;;;;-2.82;82.99;100209.59;1709260;83;20920;-75
2021/12/09 06:08:12;;;;;;;72.37;30.02;;;;;;;-2.82;82.97;100209.18;1713018;83;21551;-75
2021/12/09 06:10:38;;;;;;;;;;;;;;;-2.80;82.99;100209.23;1717412;83;20952;-75
2021/12/09 06:13:05;;;;;;;64.93;28.50;;;;;;;-2.80;83.00;100197.84;1715231;83;20239;-74
2021/12/09 06:15:31;;;;;;;67.08;28.90;;;;;;;-2.81;82.99;100198.25;1715292;83;20940;-74
2021/12/09 06:17:58;;;;;;;;;;;;;;;-2.81;82.99;100196.98;1719524;82;20920;-74
2021/12/09 06:20:27;;;;;;;66.10;28.20;;;;;;;-2.80;83.03;100202.50;1715896;82;20105;-75
2021/12/09 06:22:53;;;;;;;62.25;27.67;;;;;;;-2.80;83.01;100210.09;1686433;83;20885;-75
2021/12/09 06:25:20;;;;;;;71.25;30.90;;;;;;;-2.80;82.98;100207.96;1734982;82;20949;-75
2021/12/09 06:27:49;;;;;;;66.30;29.23;;;;;;;-2.79;83.01;100208.42;1685546;83;20891;-75
2021/12/09 06:30:17;;;;;;;70.00;29.50;;;;;;;-2.79;83.05;100200.42;1688979;83;21579;-75
2021/12/09 06:32:43;;;;;;;64.30;29.05;;;;;;;-2.79;83.01;100186.91;1710203;82;20939;-75
2021/12/09 06:35:11;;;;;;;;;;;;;;;-2.79;82.98;100185.65;1719834;82;20881;-75
2021/12/09 06:37:40;;;;;;;71.28;30.85;;;;;;;-2.81;83.03;100166.63;1717358;82;20097;-75
2021/12/09 06:40:08;;;;;;;65.65;28.55;;;;;;;-2.94;83.03;100142.17;1724176;82;20904;-75
2021/12/09 06:42:36;;;;;;;70.05;30.27;;;;;;;-2.78;83.07;100173.05;1734802;82;20953;-75
2021/12/09 06:45:03;;;;;;;62.93;28.80;;;;;;;-2.77;83.09;100169.70;1725020;82;21407;-75
2021/12/09 06:47:30;;;;;;;68.28;29.27;;;;;;;-2.73;83.09;100162.66;1712548;82;20936;-75
2021/12/09 06:49:57;;;;;;;;;;;;;;;-2.74;83.08;100145.76;1719568;82;20908;-75
2021/12/09 06:52:23;;;;;;;66.30;29.92;;;;;;;-2.72;83.14;100147.07;1715187;82;20141;-75
2021/12/09 06:54:51;;;;;;;77.40;30.15;;;;;;;-2.71;83.11;100158.50;1719988;82;20948;-75
2021/12/09 06:57:18;;;;;;;74.35;30.30;;;;;;;-2.71;83.10;100154.70;1718202;82;20941;-75
2021/12/09 06:59:44;;;;;;;71.85;30.70;;;;;;;-2.70;83.10;100156.42;1719797;82;20937;-75
2021/12/09 07:02:10;;;;;;;74.97;31.27;;;;;;;-2.70;83.11;100136.18;1716947;81;20927;-75
2021/12/09 07:04:37;;;;;;;77.27;31.60;;;;;;;-2.69;83.11;100141.69;1718256;82;20897;-75
2021/12/09 07:07:03;;;;;;;68.25;29.63;;;;;;;-2.68;83.10;100150.14;1723278;82;23069;-75
2021/12/09 07:09:30;;;;;;;71.65;32.50;;;;;;;-2.68;83.10;100144.67;1715216;82;21012;-75
2021/12/09 07:11:58;;;;;;;67.25;30.10;;;;;;;-2.67;83.11;100154.39;1719977;82;21107;-75
2021/12/09 07:14:25;;;;;;;67.50;29.67;;;;;;;-2.67;83.07;100156.92;1717286;82;21112;-75
2021/12/09 07:16:54;;;;;;;60.63;28.77;;;;;;;-2.66;83.11;100167.49;1714854;82;21066;-75
2021/12/09 07:19:20;;;;;;;68.70;31.30;;;;;;;-2.66;83.12;100167.49;1714680;82;21139;-75
2021/12/09 07:21:49;;;;;;;65.12;29.20;;;;;;;-2.67;83.08;100153.13;1718267;82;21719;-75
2021/12/09 07:24:17;;;;;;;71.45;29.25;;;;;;;-2.68;83.08;100152.67;1714842;82;21055;-75
2021/12/09 07:26:43;;;;;;;;;;;;;;;-2.68;83.12;100162.39;1708486;82;22194;-75
2021/12/09 07:29:09;;;;;;;60.48;27.00;;;;;;;-2.67;83.14;100154.39;1706393;82;20175;-76
2021/12/09 07:31:38;;;;;;;63.50;28.95;;;;;;;-2.67;83.16;100151.45;1719428;82;21068;-75
2021/12/09 07:34:04;;;;;;;69.90;31.68;;;;;;;-2.64;83.21;100149.83;1716884;82;21071;-76
2021/12/09 07:36:30;;;;;;;63.02;29.67;;;;;;;-2.65;83.17;100139.25;1678990;84;21832;-76
2021/12/09 07:38:57;;;;;;;62.60;28.40;;;;;;;-2.63;83.13;100162.93;1700800;83;21054;-75
2021/12/09 07:41:24;;;;;;;67.87;30.17;;;;;;;-2.64;83.14;100170.93;1724206;82;21044;-75
2021/12/09 07:43:51;;;;;;;64.65;30.25;;;;;;;-2.64;83.16;100168.40;1725203;82;21541;-75
2021/12/09 07:46:17;;;;;;;62.67;29.35;;;;;;;-2.63;83.18;100169.26;1719747;82;20922;-75
2021/12/09 07:48:44;;;;;;;69.47;30.57;;;;;;;-2.61;83.18;100178.61;1679062;83;20913;-75
2021/12/09 07:51:11;;;;;;;62.17;28.02;;;;;;;-2.62;83.14;100181.09;1712735;82;20920;-75
2021/12/09 07:53:37;;;;;;;68.57;30.32;;;;;;;-2.61;83.18;100184.94;1669430;84;20961;-75
2021/12/09 07:56:04;;;;;;;63.28;30.25;;;;;;;-2.59;83.21;100178.63;1692136;83;20920;-75
2021/12/09 07:58:34;;;;;;;69.82;29.82;;;;;;;-2.57;83.24;100175.73;1720475;81;20975;-76
2021/12/09 08:01:00;;;;;;;64.07;29.25;;;;;;;-2.56;83.20;100180.84;1734007;82;21661;-76
2021/12/09 08:03:26;;;;;;;66.65;30.97;;;;;;;-2.53;83.26;100176.28;1683216;83;28708;-76
2021/12/09 08:05:55;;;;;;;66.75;30.88;;;;;;;-2.51;83.20;100179.71;1677644;83;21030;-75
2021/12/09 08:08:22;;;;;;;61.55;28.87;;;;;;;-2.52;83.17;100196.57;1715761;82;21761;-75
2021/12/09 08:10:48;;;;;;;68.40;30.32;;;;;;;-2.54;83.17;100188.08;1716500;82;21000;-76
2021/12/09 08:13:14;;;;;;;72.67;32.35;;;;;;;-2.52;83.19;100203.30;1716952;82;25715;-76
2021/12/09 08:15:45;;;;;;;71.15;30.32;;;;;;;-2.51;83.21;100203.35;1722455;82;25133;-76
2021/12/09 08:20:50;;;;;;;71.65;31.80;;;;;;;-2.49;83.22;100214.38;1671498;84;20976;-75
2021/12/09 08:23:17;;;;;;;71.37;31.80;;;;;;;-2.49;83.20;100213.52;1666869;83;20922;-75
2021/12/09 08:25:44;;;;;;;66.87;30.08;;;;;;;-2.49;83.26;100207.19;1622468;86;20986;-75
2021/12/09 08:28:12;;;;;;;73.97;32.67;;;;;;;-2.46;83.24;100206.02;1657658;85;20938;-75
2021/12/09 08:30:39;;;;;;;68.20;31.02;;;;;;;-2.46;83.24;100206.87;1653476;85;20952;-75
2021/12/09 08:33:07;;;;;;;64.70;30.85;;;;;;;-2.45;83.22;100215.33;1660534;84;20981;-75
2021/12/09 08:35:35;;;;;;;73.50;33.75;;;;;;;-2.45;83.22;100204.80;1657243;84;20950;-76
2021/12/09 08:38:06;;;;;;;76.67;33.75;;;;;;;-2.43;83.21;100198.52;1676651;85;20955;-75
2021/12/09 08:40:33;;;;;;;74.80;31.82;;;;;;;-2.44;83.23;100207.78;1631730;86;20883;-75
2021/12/09 08:43:00;;;;;;;66.17;30.55;;;;;;;-2.42;83.24;100214.16;1649096;85;21020;-76
2021/12/09 08:45:28;;;;;;;77.37;33.78;;;;;;;-2.41;83.22;100220.94;1644852;85;21124;-76
2021/12/09 08:47:54;;;;;;;79.32;33.65;;;;;;;-2.41;83.25;100228.13;1649220;85;21209;-76
2021/12/09 08:50:24;;;;;;;79.82;34.98;;;;;;;-2.40;83.22;100226.45;1641687;85;21077;-76
2021/12/09 08:52:52;;;;;;;72.55;30.95;;;;;;;-2.38;83.23;100213.44;1646495;85;20938;-75
2021/12/09 08:55:21;;;;;;;69.55;31.57;;;;;;;-2.40;83.21;100209.59;1648997;85;20934;-75
2021/12/09 08:57:48;;;;;;;75.12;32.03;;;;;;;-2.40;83.25;100204.94;1640605;85;21656;-77
2021/12/09 09:00:17;;;;;;;73.35;32.05;;;;;;;-2.38;83.27;100200.37;1617162;86;21109;-77
2021/12/09 09:02:47;;;;;;;77.37;32.53;;;;;;;-2.37;83.25;100194.48;1650236;85;20991;-78
2021/12/09 09:05:14;;;;;;;74.95;31.90;;;;;;;-2.35;83.25;100205.93;1656624;85;20958;-78
2021/12/09 09:07:44;;;;;;;70.40;31.35;;;;;;;-2.35;83.25;100200.86;1667709;85;20894;-78
2021/12/09 09:10:14;;;;;;;78.25;32.93;;;;;;;-2.36;83.23;100198.73;1658929;85;20987;-78
2021/12/09 09:12:41;;;;;;;74.85;31.48;;;;;;;-2.35;83.22;100202.98;1657278;84;20902;-78
2021/12/09 09:15:11;;;;;;;73.92;32.63;;;;;;;-2.36;83.26;100204.21;1667180;85;20886;-78
2021/12/09 09:17:38;;;;;;;68.90;30.88;;;;;;;-2.36;83.25;100206.74;1656812;84;20954;-78
2021/12/09 09:20:10;;;;;;;77.35;34.05;;;;;;;-2.37;83.22;100198.28;1662867;84;20961;-78
2021/12/09 09:22:38;;;;;;;79.12;33.28;;;;;;;-2.35;83.30;100181.88;1651665;84;21379;-76
2021/12/09 09:25:08;;;;;;;75.42;33.45;;;;;;;-2.36;83.25;100186.08;1656648;84;21070;-75
2021/12/09 09:27:36;;;;;;;74.92;32.73;;;;;;;-2.32;83.28;100203.89;1656153;85;20975;-75
2021/12/09 09:30:05;;;;;;;76.87;32.28;;;;;;;-2.32;83.29;100216.15;1661376;85;20962;-75
2021/12/09 09:35:13;;;;;;;74.73;31.97;;;;;;;-2.24;83.29;100183.45;1825159;76;23463;-76
2021/12/09 09:37:44;;;;;;;73.52;31.17;;;;;;;-2.26;83.33;100204.93;1800069;79;20953;-76
2021/12/09 09:40:16;;;;;;;67.10;29.65;;;;;;;-2.23;83.34;100202.89;1803282;78;20941;-76
2021/12/09 09:45:14;;;;;;;64.95;29.57;;;;;;;-2.19;83.29;100202.16;1802420;78;20915;-76
2021/12/09 09:47:41;;;;;;;67.40;31.33;;;;;;;-2.18;83.29;100191.22;1797010;79;20913;-76
2021/12/09 09:50:10;;;;;;;69.87;29.70;;;;;;;-2.16;83.33;100195.92;1797891;78;20899;-76
2021/12/09 09:52:37;;;;;;;73.75;31.93;;;;;;;-2.14;83.32;100188.82;1777757;77;21957;-76
2021/12/09 09:55:09;;;;;;;80.35;33.85;;;;;;;-2.14;83.29;100190.09;1765907;79;20964;-75
2021/12/09 09:57:36;;;;;;;73.05;30.12;;;;;;;-2.13;83.31;100182.08;1762994;80;21425;-75
2021/12/09 10:00:07;;;;;;;70.30;32.03;;;;;;;-2.11;83.31;100182.57;1780651;79;21482;-75
2021/12/09 10:02:34;;;;;;;75.42;32.15;;;;;;;-2.10;83.29;100180.49;1747155;79;20902;-75
2021/12/09 10:05:02;;;;;;;67.92;30.65;;;;;;;-2.10;83.31;100170.36;1744199;79;20898;-75
2021/12/09 10:07:30;;;;;;;71.22;32.67;;;;;;;-2.09;83.29;100155.61;1789186;79;20855;-76
2021/12/09 10:09:56;;;;;;;72.65;34.38;;;;;;;-2.07;83.26;100160.69;1799580;79;20859;-76
2021/12/09 10:12:23;;;;;;;71.90;30.68;;;;;;;-2.07;83.28;100160.28;1751916;80;20929;-76
2021/12/09 10:14:53;;;;;;;70.80;32.55;;;;;;;-2.06;83.30;100159.88;1761580;79;20862;-76
2021/12/09 10:17:23;;;;;;;62.95;30.00;;;;;;;-2.04;83.30;100159.09;1748852;80;20910;-76
2021/12/09 10:20:03;;;;;;;72.70;31.55;;;;;;;-2.02;83.30;100157.47;1749213;81;20914;-76
2021/12/09 10:22:35;;;;;;;71.95;31.55;;;;;;;-2.01;83.33;100146.52;1747291;81;20913;-76
2021/12/09 10:25:05;;;;;;;60.98;29.67;;;;;;;-1.96;83.33;100147.91;1756293;79;20873;-76
2021/12/09 10:27:34;;;;;;;73.12;33.92;;;;;;;-1.92;83.33;100136.17;1753567;80;20929;-76
2021/12/09 10:30:16;;;;;;;72.20;32.85;;;;;;;-1.91;83.31;100123.95;1739309;81;20941;-76
2021/12/09 10:32:43;;;;;;;69.60;33.63;;;;;;;-1.88;83.33;100122.77;1753832;80;20916;-76
2021/12/09 10:35:16;;;;;;;62.53;30.32;;;;;;;-1.84;83.33;100133.03;1769913;79;20902;-76
2021/12/09 10:37:45;;;;;;;72.45;32.75;;;;;;;-1.81;83.32;100124.23;1761362;79;20874;-76
2021/12/09 10:40:30;;;;;;;67.78;33.13;;;;;;;-1.76;83.34;100121.41;1750116;79;20858;-76
2021/12/09 10:43:01;;;;;;;70.40;32.73;;;;;;;-1.75;83.27;100121.86;1755053;81;20913;-75
2021/12/09 10:45:34;;;;;;;69.80;31.30;;;;;;;-1.69;83.35;100120.75;1774819;80;21344;-75
2021/12/09 10:48:32;;;;;;;71.07;31.95;;;;;;;-1.64;83.34;100121.28;1777258;79;20938;-76
2021/12/09 10:50:43;;;;;;;68.62;34.27;;;;;;;-1.61;83.30;100111.22;1741532;79;20932;-76
2021/12/09 10:56:00;;;;;;;61.42;30.75;;;;;;;-1.55;83.28;100099.92;1776588;80;20918;-76
2021/12/09 10:58:34;;;;;;;70.00;30.70;;;;;;;-1.47;83.34;100103.50;1772418;79;20922;-76
2021/12/09 11:01:13;;;;;;;71.90;33.45;;;;;;;-1.41;83.36;100101.11;1776343;79;20910;-76
2021/12/09 11:03:50;;;;;;;62.53;31.70;;;;;;;-1.37;83.35;100105.03;1770845;79;20958;-76
2021/12/09 11:06:20;;;;;;;67.65;31.80;;;;;;;-1.35;83.29;100107.19;1777180;79;20910;-76
2021/12/09 11:08:53;;;;;;;68.33;32.25;;;;;;;-1.31;83.29;100114.45;1768691;79;20906;-76
2021/12/09 11:11:30;;;;;;;68.97;30.82;;;;;;;-1.32;83.27;100117.81;1760597;80;21324;-76
2021/12/09 11:14:00;;;;;;;64.72;30.77;;;;;;;-1.34;83.24;100112.71;1756862;81;20933;-76
2021/12/09 11:16:37;;;;;;;69.10;31.02;;;;;;;-1.37;83.22;100113.05;1752080;80;20970;-76
2021/12/09 11:19:19;;;;;;;67.00;32.53;;;;;;;-1.39;83.24;100115.55;1767942;80;20925;-76
2021/12/09 11:21:55;;;;;;;69.85;31.73;;;;;;;-1.42;83.22;100117.15;1780126;80;20898;-75
2021/12/09 11:24:20;;;;;;;68.00;31.97;;;;;;;-1.44;83.25;100118.38;1764286;80;20947;-75
2021/12/09 11:27:00;;;;;;;67.25;31.80;;;;;;;-1.45;83.27;100115.81;1769289;80;21431;-75
2021/12/09 11:29:37;;;;;;;74.97;33.70;;;;;;;-1.44;83.29;100119.65;1769844;79;21092;-75
2021/12/09 11:32:22;;;;;;;74.87;33.53;;;;;;;-1.46;83.24;100136.50;1775772;79;21599;-76